LRTC - TULCEA / DELTA DUNARII

Compiled: 21:31:08 on 19/01/2018

Latest METAR/SPECI Reports

METAR LRTC 192100Z AUTO 19002KT 170V230 9999 02/M00 Q1012=

Previous reports

METAR LRTC 192030Z AUTO 17004KT 9999 02/M01 Q1011=
METAR LRTC 192000Z AUTO 07002KT 9999 02/M01 Q1012=
METAR LRTC 191930Z AUTO 15003KT 090V210 9999 01/M01 Q1012=
METAR LRTC 191900Z AUTO 23004KT 9999 01/M01 Q1012=

Latest TAF report

TAF LRTC 191400Z 1915/1924 26008KT CAVOK=

Valid WARNINGS

No valid warnings for LRTC